createdAt,value
2024-03-11T00:00:22.626Z,7.05
2024-03-11T00:02:50.756Z,7.68
2024-03-11T00:05:17.512Z,7.75
2024-03-11T00:07:46.576Z,7.65
2024-03-11T00:10:16.526Z,6.88
2024-03-11T00:12:50.449Z,6.75
2024-03-11T00:15:17.974Z,8.00
2024-03-11T00:17:44.464Z,7.78
2024-03-11T00:20:11.495Z,11.00
2024-03-11T00:25:09.972Z,8.10
2024-03-11T00:27:37.996Z,7.15
2024-03-11T00:30:09.549Z,7.63
2024-03-11T00:32:46.668Z,7.20
2024-03-11T00:35:15.509Z,6.40
2024-03-11T00:37:42.347Z,7.45
2024-03-11T00:40:09.355Z,7.18
2024-03-11T00:42:36.195Z,5.95
2024-03-11T00:45:03.676Z,7.90
2024-03-11T00:47:30.313Z,6.35
2024-03-11T00:49:59.188Z,6.90
2024-03-11T00:52:26.222Z,7.15
2024-03-11T00:57:21.379Z,6.32
2024-03-11T00:59:47.951Z,6.82
2024-03-11T01:02:14.500Z,7.60
2024-03-11T01:04:43.351Z,6.90
2024-03-11T01:07:19.959Z,7.90
2024-03-11T01:09:55.719Z,7.32
2024-03-11T01:12:26.407Z,7.07
2024-03-11T01:14:56.207Z,7.85
2024-03-11T01:17:25.219Z,6.88
2024-03-11T01:19:52.005Z,6.72
2024-03-11T01:22:18.432Z,7.05
2024-03-11T01:24:47.368Z,5.85
2024-03-11T01:27:16.302Z,7.20
2024-03-11T01:29:43.105Z,7.10
2024-03-11T01:32:12.854Z,7.47
2024-03-11T01:34:42.182Z,6.78
2024-03-11T01:37:08.852Z,6.88
2024-03-11T01:39:44.734Z,7.88
2024-03-11T01:42:17.242Z,6.85
2024-03-11T01:44:49.715Z,6.55
2024-03-11T01:47:20.489Z,6.32
2024-03-11T01:49:52.270Z,6.65
2024-03-11T01:52:27.488Z,7.15
2024-03-11T01:54:56.831Z,6.10
2024-03-11T01:57:29.877Z,5.90
2024-03-11T01:59:59.145Z,6.65
2024-03-11T02:02:28.470Z,6.57
2024-03-11T02:04:55.177Z,6.22
2024-03-11T02:07:23.548Z,6.80
2024-03-11T02:09:50.011Z,6.28
2024-03-11T02:12:19.231Z,6.32
2024-03-11T02:14:47.182Z,6.50
2024-03-11T02:17:17.019Z,6.22
2024-03-11T02:19:48.983Z,6.20
2024-03-11T02:22:15.620Z,6.50
2024-03-11T02:24:42.079Z,6.68
2024-03-11T02:27:08.835Z,6.75
2024-03-11T02:29:35.418Z,7.07
2024-03-11T02:32:02.043Z,6.78
2024-03-11T02:34:28.777Z,6.88
2024-03-11T02:36:57.070Z,6.25
2024-03-11T02:39:23.536Z,5.95
2024-03-11T02:41:52.883Z,7.35
2024-03-11T02:44:19.448Z,6.60
2024-03-11T02:46:46.156Z,7.22
2024-03-11T02:49:14.031Z,7.05
2024-03-11T02:51:41.300Z,6.47
2024-03-11T02:54:09.973Z,6.22
2024-03-11T02:56:36.973Z,6.65
2024-03-11T02:59:03.559Z,6.28
2024-03-11T03:01:30.060Z,6.90
2024-03-11T03:03:56.547Z,6.85
2024-03-11T03:06:23.016Z,5.88
2024-03-11T03:08:49.602Z,6.75
2024-03-11T03:11:16.387Z,6.50
2024-03-11T03:13:42.841Z,6.78
2024-03-11T03:16:11.772Z,6.53
2024-03-11T03:18:38.266Z,6.15
2024-03-11T03:21:05.081Z,6.70
2024-03-11T03:23:33.749Z,5.90
2024-03-11T03:26:00.251Z,6.95
2024-03-11T03:28:26.683Z,6.50
2024-03-11T03:30:54.956Z,7.03
2024-03-11T03:33:22.230Z,7.25
2024-03-11T03:35:52.204Z,6.80
2024-03-11T03:38:18.641Z,6.88
2024-03-11T03:40:45.157Z,7.18
2024-03-11T03:43:11.581Z,6.30
2024-03-11T03:45:38.096Z,6.18
2024-03-11T03:48:05.012Z,6.47
2024-03-11T03:50:31.600Z,6.72
2024-03-11T03:52:59.621Z,6.22
2024-03-11T03:55:26.083Z,6.00
2024-03-11T03:57:54.866Z,6.35
2024-03-11T04:00:21.873Z,7.40
2024-03-11T04:02:52.977Z,6.55
2024-03-11T04:05:22.971Z,6.60
2024-03-11T04:07:50.095Z,5.85
2024-03-11T04:12:49.028Z,6.50
2024-03-11T04:15:19.046Z,6.18
2024-03-11T04:17:48.814Z,6.78
2024-03-11T04:20:16.717Z,6.25
2024-03-11T04:22:47.086Z,6.97
2024-03-11T04:25:20.691Z,6.88
2024-03-11T04:27:48.720Z,6.60
2024-03-11T04:30:20.403Z,6.43
2024-03-11T04:32:53.463Z,7.15
2024-03-11T04:35:26.770Z,7.00
2024-03-11T04:40:20.265Z,7.22
2024-03-11T04:42:47.404Z,6.57
2024-03-11T04:47:40.670Z,4.93
2024-03-11T04:50:11.876Z,6.28
2024-03-11T04:52:40.965Z,7.22
2024-03-11T04:55:07.857Z,6.00
2024-03-11T04:57:36.874Z,6.32
2024-03-11T05:00:05.991Z,6.57
2024-03-11T05:02:36.548Z,7.00
2024-03-11T05:05:04.424Z,6.70
2024-03-11T05:07:32.570Z,6.47
2024-03-11T05:10:01.972Z,6.78
2024-03-11T05:12:29.220Z,6.50
2024-03-11T05:14:55.946Z,6.10
2024-03-11T05:17:22.479Z,6.93
2024-03-11T05:19:49.694Z,7.07
2024-03-11T05:24:45.292Z,6.25
2024-03-11T05:27:12.025Z,6.63
2024-03-11T05:29:40.976Z,6.53
2024-03-11T05:32:10.053Z,6.85
2024-03-11T05:34:36.589Z,6.80
2024-03-11T05:37:07.831Z,6.95
2024-03-11T05:39:35.207Z,7.28
2024-03-11T05:42:06.473Z,6.97
2024-03-11T05:44:35.220Z,7.30
2024-03-11T05:47:02.350Z,6.10
2024-03-11T05:51:59.943Z,6.25
2024-03-11T05:54:26.456Z,7.05
2024-03-11T05:56:57.768Z,6.47
2024-03-11T05:59:27.840Z,6.82
2024-03-11T06:01:58.730Z,7.40
2024-03-11T06:04:28.308Z,6.57
2024-03-11T06:06:55.338Z,6.47
2024-03-11T06:11:51.448Z,6.05
2024-03-11T06:14:20.458Z,6.65
2024-03-11T06:16:46.903Z,6.88
2024-03-11T06:19:18.987Z,6.47
2024-03-11T06:21:45.444Z,7.00
2024-03-11T06:24:12.459Z,6.80
2024-03-11T06:26:39.306Z,6.78
2024-03-11T06:29:09.749Z,6.45
2024-03-11T06:31:38.177Z,7.20
2024-03-11T06:34:07.848Z,6.75
2024-03-11T06:36:35.436Z,6.68
2024-03-11T06:39:02.173Z,7.07
2024-03-11T06:41:28.696Z,7.97
2024-03-11T06:43:55.313Z,7.68
2024-03-11T06:46:23.034Z,7.35
2024-03-11T06:48:50.216Z,6.85
2024-03-11T06:51:16.841Z,7.60
2024-03-11T06:53:47.895Z,6.63
2024-03-11T06:56:14.640Z,7.80
2024-03-11T06:58:41.071Z,7.68
2024-03-11T07:01:08.469Z,6.97
2024-03-11T07:03:39.005Z,6.72
2024-03-11T07:06:06.059Z,7.40
2024-03-11T07:11:03.796Z,5.75
2024-03-11T07:13:33.258Z,6.47
2024-03-11T07:15:59.889Z,7.10
2024-03-11T07:18:27.628Z,6.90
2024-03-11T07:20:56.677Z,6.70
2024-03-11T07:23:23.373Z,6.57
2024-03-11T07:25:52.161Z,6.82
2024-03-11T07:28:19.058Z,6.85
2024-03-11T07:30:47.023Z,7.97
2024-03-11T07:33:16.386Z,7.10
2024-03-11T07:35:43.356Z,6.80
2024-03-11T07:38:10.765Z,7.25
2024-03-11T07:40:38.481Z,6.60
2024-03-11T07:43:08.085Z,6.63
2024-03-11T07:45:39.033Z,7.78
2024-03-11T07:48:07.104Z,7.72
2024-03-11T07:50:33.745Z,6.88
2024-03-11T07:53:00.535Z,7.70
2024-03-11T07:55:29.959Z,7.18
2024-03-11T07:58:02.096Z,7.07
2024-03-11T08:00:32.432Z,7.25
2024-03-11T08:03:00.157Z,7.18
2024-03-11T08:05:28.554Z,6.78
2024-03-11T08:07:55.189Z,7.25
2024-03-11T08:10:22.082Z,7.25
2024-03-11T08:15:21.765Z,7.43
2024-03-11T08:17:50.360Z,9.32
2024-03-11T08:20:25.100Z,8.13
2024-03-11T08:22:54.029Z,9.25
2024-03-11T08:25:24.093Z,9.85
2024-03-11T08:27:53.623Z,9.48
2024-03-11T08:30:22.428Z,9.52
2024-03-11T08:32:54.172Z,9.18
2024-03-11T08:35:24.517Z,9.20
2024-03-11T08:37:51.547Z,10.75
2024-03-11T08:42:51.303Z,11.43
2024-03-11T08:45:23.881Z,10.95
2024-03-11T08:47:51.362Z,11.55
2024-03-11T08:52:46.936Z,10.90
2024-03-11T08:55:14.796Z,11.80
2024-03-11T08:57:44.161Z,11.88
2024-03-11T09:00:12.705Z,11.50
2024-03-11T09:02:40.254Z,10.93
2024-03-11T09:05:19.944Z,11.18
2024-03-11T09:07:48.788Z,11.35
2024-03-11T09:10:15.789Z,11.13
2024-03-11T09:12:43.637Z,11.20
2024-03-11T09:15:17.647Z,11.95
2024-03-11T09:17:47.351Z,12.13
2024-03-11T09:20:17.771Z,12.15
2024-03-11T09:22:48.332Z,11.80
2024-03-11T09:25:27.886Z,12.57
2024-03-11T09:28:03.050Z,11.80
2024-03-11T09:30:39.246Z,11.98
2024-03-11T09:33:12.543Z,11.77
2024-03-11T09:35:39.200Z,11.40
2024-03-11T09:38:05.764Z,12.10
2024-03-11T09:40:32.709Z,11.82
2024-03-11T09:45:32.149Z,10.13
2024-03-11T09:48:00.589Z,11.10
2024-03-11T09:50:31.665Z,9.77
2024-03-11T09:53:04.498Z,10.48
2024-03-11T09:55:32.065Z,8.80
2024-03-11T09:58:03.536Z,11.35
2024-03-11T10:00:34.312Z,9.75
2024-03-11T10:03:07.111Z,11.10
2024-03-11T10:05:33.682Z,10.68
2024-03-11T10:08:01.002Z,11.05
2024-03-11T10:10:30.614Z,10.57
2024-03-11T10:13:06.137Z,9.85
2024-03-11T10:15:35.781Z,9.40
2024-03-11T10:18:16.292Z,9.95
2024-03-11T10:20:45.118Z,7.00
2024-03-11T10:23:11.754Z,9.10
2024-03-11T10:25:41.808Z,9.85
2024-03-11T10:28:08.636Z,9.82
2024-03-11T10:30:39.298Z,10.63
2024-03-11T10:33:09.931Z,10.35
2024-03-11T10:35:36.606Z,10.60
2024-03-11T10:38:13.748Z,9.45
2024-03-11T10:40:40.474Z,11.43
2024-03-11T10:43:20.965Z,10.48
2024-03-11T10:45:49.880Z,8.23
2024-03-11T10:48:19.341Z,9.40
2024-03-11T10:50:46.084Z,10.20
2024-03-11T10:53:27.681Z,9.93
2024-03-11T10:55:59.987Z,9.13
2024-03-11T10:58:29.936Z,9.73
2024-03-11T11:01:01.825Z,9.10
2024-03-11T11:03:31.399Z,9.32
2024-03-11T11:06:02.986Z,8.35
2024-03-11T11:08:38.160Z,7.72
2024-03-11T11:11:06.227Z,8.07
2024-03-11T11:13:34.431Z,8.93
2024-03-11T11:16:04.645Z,9.10
2024-03-11T11:18:39.999Z,9.63
2024-03-11T11:21:11.650Z,7.38
2024-03-11T11:23:39.884Z,8.57
2024-03-11T11:26:06.313Z,8.15
2024-03-11T11:28:38.667Z,7.00
2024-03-11T11:31:26.760Z,7.65
2024-03-11T11:34:01.116Z,6.72
2024-03-11T11:36:30.680Z,7.28
2024-03-11T11:39:18.725Z,7.75
2024-03-11T11:41:47.145Z,7.05
2024-03-11T11:44:30.329Z,6.30
2024-03-11T11:47:10.583Z,7.68
2024-03-11T11:49:41.228Z,7.28
2024-03-11T11:52:09.349Z,4.45
2024-03-11T11:54:37.793Z,5.80
2024-03-11T11:57:07.293Z,4.78
2024-03-11T11:59:34.422Z,5.47
2024-03-11T12:02:01.525Z,5.47
2024-03-11T12:04:29.404Z,5.03
2024-03-11T12:06:59.554Z,5.18
2024-03-11T12:09:26.246Z,4.95
2024-03-11T12:11:57.023Z,4.35
2024-03-11T12:14:23.781Z,4.90
2024-03-11T12:16:50.276Z,4.68
2024-03-11T12:19:18.005Z,4.43
2024-03-11T12:21:45.483Z,3.35
2024-03-11T12:24:15.739Z,3.85
2024-03-11T12:26:48.570Z,2.72
2024-03-11T12:29:16.762Z,3.70
2024-03-11T12:31:43.503Z,2.53
2024-03-11T12:34:14.754Z,2.65
2024-03-11T12:36:50.115Z,2.72
2024-03-11T12:39:35.292Z,2.47
2024-03-11T12:42:09.857Z,2.47
2024-03-11T12:44:37.882Z,2.92
2024-03-11T12:47:06.093Z,2.60
2024-03-11T12:49:33.086Z,2.30
2024-03-11T12:54:39.194Z,2.38
2024-03-11T12:57:15.407Z,2.85
2024-03-11T12:59:43.513Z,1.88
2024-03-11T13:02:22.631Z,2.45
2024-03-11T13:04:54.330Z,1.90
2024-03-11T13:07:24.363Z,1.98
2024-03-11T13:10:00.038Z,1.90
2024-03-11T13:12:30.688Z,2.10
2024-03-11T13:14:57.451Z,2.22
2024-03-11T13:17:24.109Z,1.58
2024-03-11T13:19:57.426Z,1.15
2024-03-11T13:22:23.924Z,1.30
2024-03-11T13:24:52.966Z,1.17
2024-03-11T13:27:20.047Z,0.98
2024-03-11T13:29:49.093Z,1.27
2024-03-11T13:32:16.012Z,1.27
2024-03-11T13:37:12.605Z,1.20
2024-03-11T13:39:42.650Z,1.55
2024-03-11T13:42:16.012Z,1.40
2024-03-11T13:44:42.764Z,1.50
2024-03-11T13:47:15.077Z,1.50
2024-03-11T13:49:45.054Z,2.00
2024-03-11T13:52:12.084Z,1.80
2024-03-11T13:54:40.796Z,1.70
2024-03-11T13:57:10.378Z,1.40
2024-03-11T13:59:37.420Z,1.42
2024-03-11T14:02:04.039Z,1.35
2024-03-11T14:04:30.628Z,1.60
2024-03-11T14:06:57.309Z,1.48
2024-03-11T14:09:26.313Z,1.40
2024-03-11T14:11:53.917Z,0.90
2024-03-11T14:14:20.707Z,1.35
2024-03-11T14:16:50.263Z,1.40
2024-03-11T14:19:20.226Z,1.17
2024-03-11T14:21:52.786Z,1.00
2024-03-11T14:24:20.392Z,1.23
2024-03-11T14:26:46.888Z,1.20
2024-03-11T14:29:15.902Z,1.30
2024-03-11T14:31:46.117Z,1.25
2024-03-11T14:34:13.597Z,1.40
2024-03-11T14:36:40.241Z,1.20
2024-03-11T14:39:18.831Z,1.50
2024-03-11T14:41:47.145Z,2.97
2024-03-11T14:44:18.522Z,1.65
2024-03-11T14:46:56.714Z,1.27
2024-03-11T14:49:25.901Z,1.35
2024-03-11T14:51:54.675Z,1.40
2024-03-11T14:54:27.524Z,1.45
2024-03-11T14:56:57.757Z,1.60
2024-03-11T14:59:32.511Z,1.40
2024-03-11T15:02:00.019Z,1.40
2024-03-11T15:04:29.712Z,1.55
2024-03-11T15:06:56.698Z,1.70
2024-03-11T15:09:23.834Z,1.48
2024-03-11T15:11:53.988Z,1.45
2024-03-11T15:14:23.664Z,1.60
2024-03-11T15:16:57.694Z,1.48
2024-03-11T15:19:25.229Z,1.50
2024-03-11T15:21:52.621Z,1.50
2024-03-11T15:24:22.289Z,1.83
2024-03-11T15:26:49.084Z,1.70
2024-03-11T15:29:15.648Z,1.30
2024-03-11T15:31:44.927Z,1.65
2024-03-11T15:34:16.593Z,1.45
2024-03-11T15:36:43.430Z,1.42
2024-03-11T15:39:09.894Z,1.50
2024-03-11T15:41:36.466Z,1.80
2024-03-11T15:44:05.840Z,1.38
2024-03-11T15:46:32.245Z,1.35
2024-03-11T15:49:01.188Z,2.47
2024-03-11T15:51:28.794Z,1.95
2024-03-11T15:53:55.385Z,1.70
2024-03-11T15:56:24.900Z,1.50
2024-03-11T15:58:51.644Z,1.77
2024-03-11T16:01:24.439Z,1.80
2024-03-11T16:03:56.940Z,1.45
2024-03-11T16:06:23.679Z,1.20
2024-03-11T16:08:52.063Z,1.33
2024-03-11T16:11:18.535Z,1.40
2024-03-11T16:13:46.188Z,1.00
2024-03-11T16:16:14.963Z,1.08
2024-03-11T16:18:43.741Z,1.80
2024-03-11T16:21:10.272Z,1.77
2024-03-11T16:23:39.010Z,1.50
2024-03-11T16:26:05.497Z,1.48
2024-03-11T16:28:33.934Z,1.42
2024-03-11T16:31:00.564Z,1.33
2024-03-11T16:33:28.978Z,1.40
2024-03-11T16:35:56.049Z,1.30
2024-03-11T16:38:25.027Z,1.50
2024-03-11T16:40:53.872Z,1.30
2024-03-11T16:43:22.569Z,1.50
2024-03-11T16:45:50.206Z,1.80
2024-03-11T16:48:19.315Z,1.50
2024-03-11T16:50:49.415Z,1.48
2024-03-11T16:53:18.490Z,1.40
2024-03-11T16:55:47.261Z,1.30
2024-03-11T16:58:16.393Z,1.90
2024-03-11T17:00:44.186Z,1.70
2024-03-11T17:03:10.800Z,1.42
2024-03-11T17:05:40.063Z,1.58
2024-03-11T17:08:09.771Z,1.40
2024-03-11T17:10:37.031Z,1.50
2024-03-11T17:13:08.475Z,1.70
2024-03-11T17:15:36.396Z,1.30
2024-03-11T17:18:04.055Z,2.05
2024-03-11T17:20:45.685Z,1.63
2024-03-11T17:23:17.760Z,1.40
2024-03-11T17:25:50.619Z,1.30
2024-03-11T17:28:21.621Z,1.98
2024-03-11T17:30:53.889Z,1.30
2024-03-11T17:33:23.388Z,1.58
2024-03-11T17:35:51.000Z,1.35
2024-03-11T17:38:19.995Z,1.73
2024-03-11T17:40:49.874Z,1.75
2024-03-11T17:43:18.241Z,1.80
2024-03-11T17:45:45.973Z,1.65
2024-03-11T17:48:17.280Z,1.63
2024-03-11T17:50:44.953Z,1.85
2024-03-11T17:53:14.725Z,1.80
2024-03-11T17:55:42.398Z,1.80
2024-03-11T17:58:16.771Z,1.83
2024-03-11T18:00:44.450Z,2.03
2024-03-11T18:03:11.539Z,1.80
2024-03-11T18:05:41.790Z,2.10
2024-03-11T18:08:11.029Z,2.38
2024-03-11T18:10:41.978Z,3.85
2024-03-11T18:13:15.990Z,4.40
2024-03-11T18:15:44.240Z,3.72
2024-03-11T18:18:11.676Z,2.28
2024-03-11T18:20:41.262Z,2.10
2024-03-11T18:23:13.043Z,2.63
2024-03-11T18:25:40.387Z,2.70
2024-03-11T18:28:09.078Z,2.50
2024-03-11T18:30:39.164Z,2.28
2024-03-11T18:33:08.296Z,2.30
2024-03-11T18:35:38.467Z,2.20
2024-03-11T18:38:08.362Z,2.80
2024-03-11T18:40:35.194Z,2.90
2024-03-11T18:43:02.478Z,2.22
2024-03-11T18:48:01.447Z,2.17
2024-03-11T18:50:28.758Z,2.25
2024-03-11T18:53:00.276Z,2.33
2024-03-11T18:55:30.573Z,8.52
2024-03-11T18:57:57.929Z,4.25
2024-03-11T19:00:27.727Z,3.92
2024-03-11T19:02:58.059Z,4.00
2024-03-11T19:05:25.504Z,6.45
2024-03-11T19:07:52.737Z,6.05
2024-03-11T19:10:23.324Z,6.38
2024-03-11T19:12:52.155Z,6.00
2024-03-11T19:15:21.323Z,5.30
2024-03-11T19:17:50.270Z,6.35
2024-03-11T19:20:18.297Z,6.07
2024-03-11T19:22:46.716Z,4.88
2024-03-11T19:25:19.243Z,4.13
2024-03-11T19:27:52.533Z,3.85
2024-03-11T19:30:23.410Z,4.18
2024-03-11T19:32:52.028Z,4.43
2024-03-11T19:35:21.185Z,3.92
2024-03-11T19:38:00.063Z,2.80
2024-03-11T19:40:32.581Z,3.25
2024-03-11T19:43:29.257Z,4.00
2024-03-11T19:46:30.611Z,3.10
2024-03-11T19:49:25.632Z,3.40
2024-03-11T19:52:33.588Z,3.53
2024-03-11T19:55:22.001Z,3.10
2024-03-11T19:58:28.601Z,3.00
2024-03-11T20:01:16.576Z,2.83
2024-03-11T20:04:24.285Z,2.88
2024-03-11T20:07:21.512Z,1.92
2024-03-11T20:10:25.524Z,2.45
2024-03-11T20:13:18.692Z,2.55
2024-03-11T20:15:52.390Z,2.67
2024-03-11T20:19:14.335Z,2.80
2024-03-11T20:21:56.256Z,3.10
2024-03-11T20:24:53.689Z,4.50
2024-03-11T20:30:08.184Z,3.25
2024-03-11T20:32:52.926Z,4.03
2024-03-11T20:35:24.720Z,4.05
2024-03-11T20:37:51.302Z,3.90
2024-03-11T20:40:22.753Z,4.55
2024-03-11T20:42:49.750Z,4.47
2024-03-11T20:45:18.949Z,3.70
2024-03-11T20:47:46.908Z,4.13
2024-03-11T20:50:18.210Z,3.50
2024-03-11T20:52:46.573Z,4.10
2024-03-11T20:55:13.295Z,2.97
2024-03-11T20:57:41.018Z,3.40
2024-03-11T21:00:20.592Z,3.15
2024-03-11T21:02:51.212Z,3.85
2024-03-11T21:05:18.791Z,3.45
2024-03-11T21:07:46.177Z,4.10
2024-03-11T21:10:15.113Z,3.38
2024-03-11T21:12:43.978Z,4.68
2024-03-11T21:15:14.379Z,3.50
2024-03-11T21:17:42.413Z,3.50
2024-03-11T21:20:27.870Z,3.35
2024-03-11T21:23:02.327Z,4.03
2024-03-11T21:25:43.854Z,3.50
2024-03-11T21:28:11.825Z,3.90
2024-03-11T21:30:39.038Z,4.30
2024-03-11T21:33:08.480Z,4.05
2024-03-11T21:35:35.076Z,3.83
2024-03-11T21:38:13.221Z,3.80
2024-03-11T21:40:49.500Z,3.53
2024-03-11T21:43:15.950Z,3.95
2024-03-11T21:45:43.596Z,3.20
2024-03-11T21:48:13.861Z,3.63
2024-03-11T21:50:42.546Z,3.13
2024-03-11T21:53:10.676Z,3.63
2024-03-11T21:55:42.731Z,3.42
2024-03-11T21:58:10.048Z,3.58
2024-03-11T22:00:36.780Z,4.47
2024-03-11T22:03:03.586Z,4.07
2024-03-11T22:05:32.494Z,4.22
2024-03-11T22:07:58.977Z,4.32
2024-03-11T22:10:27.734Z,3.75
2024-03-11T22:12:54.342Z,5.20
2024-03-11T22:15:21.982Z,4.30
2024-03-11T22:17:50.974Z,4.30
2024-03-11T22:20:17.717Z,4.07
2024-03-11T22:22:47.560Z,5.35
2024-03-11T22:25:14.234Z,4.53
2024-03-11T22:27:41.073Z,4.25
2024-03-11T22:30:11.806Z,4.20
2024-03-11T22:32:41.828Z,4.05
2024-03-11T22:35:09.842Z,4.28
2024-03-11T22:37:36.354Z,4.63
2024-03-11T22:40:07.825Z,4.72
2024-03-11T22:42:34.793Z,4.72
2024-03-11T22:45:01.503Z,4.43
2024-03-11T22:47:30.372Z,4.25
2024-03-11T22:49:56.856Z,5.03
2024-03-11T22:52:23.317Z,4.57
2024-03-11T22:54:49.779Z,5.43
2024-03-11T22:57:16.866Z,4.60
2024-03-11T22:59:43.852Z,4.85
2024-03-11T23:02:17.480Z,4.68
2024-03-11T23:04:50.038Z,4.70
2024-03-11T23:07:17.753Z,4.03
2024-03-11T23:09:44.448Z,3.80
2024-03-11T23:12:12.709Z,3.85
2024-03-11T23:14:44.431Z,3.97
2024-03-11T23:17:14.601Z,3.83
2024-03-11T23:19:44.927Z,4.05
2024-03-11T23:22:13.711Z,4.57
2024-03-11T23:24:44.005Z,4.05
2024-03-11T23:27:10.510Z,4.47
2024-03-11T23:29:38.239Z,4.35
2024-03-11T23:32:08.055Z,4.10
2024-03-11T23:34:34.627Z,4.10
2024-03-11T23:37:01.348Z,4.13
2024-03-11T23:39:28.593Z,4.80
2024-03-11T23:41:55.692Z,4.10
2024-03-11T23:44:22.159Z,4.10
2024-03-11T23:46:48.633Z,4.13
2024-03-11T23:49:15.958Z,4.35
2024-03-11T23:51:46.142Z,3.72
2024-03-11T23:54:13.168Z,3.85
2024-03-11T23:56:44.362Z,4.05
2024-03-11T23:59:14.666Z,4.03
